sensor_id;sensor_type;location;lat;lon;timestamp;P1;durP1;ratioP1;P2;durP2;ratioP2
79566;SDS011;69030;48.126;7.816;2023-05-29T00:00:38;11.48;;;5.75;;
79566;SDS011;69030;48.126;7.816;2023-05-29T00:03:03;7.72;;;4.45;;
79566;SDS011;69030;48.126;7.816;2023-05-29T00:05:30;9.40;;;5.00;;
79566;SDS011;69030;48.126;7.816;2023-05-29T00:07:55;7.80;;;3.60;;
79566;SDS011;69030;48.126;7.816;2023-05-29T00:10:21;7.05;;;3.90;;
79566;SDS011;69030;48.126;7.816;2023-05-29T00:12:46;9.32;;;4.13;;
79566;SDS011;69030;48.126;7.816;2023-05-29T00:15:11;11.80;;;4.45;;
79566;SDS011;69030;48.126;7.816;2023-05-29T00:17:37;9.50;;;4.22;;
79566;SDS011;69030;48.126;7.816;2023-05-29T00:20:04;12.65;;;4.30;;
79566;SDS011;69030;48.126;7.816;2023-05-29T00:22:34;9.43;;;4.32;;
79566;SDS011;69030;48.126;7.816;2023-05-29T00:25:02;9.35;;;5.35;;
79566;SDS011;69030;48.126;7.816;2023-05-29T00:27:28;10.25;;;4.68;;
79566;SDS011;69030;48.126;7.816;2023-05-29T00:29:54;11.27;;;4.43;;
79566;SDS011;69030;48.126;7.816;2023-05-29T00:32:19;10.85;;;4.80;;
79566;SDS011;69030;48.126;7.816;2023-05-29T00:34:45;10.40;;;5.32;;
79566;SDS011;69030;48.126;7.816;2023-05-29T00:37:10;11.13;;;5.20;;
79566;SDS011;69030;48.126;7.816;2023-05-29T00:39:35;10.13;;;5.03;;
79566;SDS011;69030;48.126;7.816;2023-05-29T00:42:01;8.98;;;5.45;;
79566;SDS011;69030;48.126;7.816;2023-05-29T00:44:26;13.20;;;4.85;;
79566;SDS011;69030;48.126;7.816;2023-05-29T00:46:52;10.10;;;4.25;;
79566;SDS011;69030;48.126;7.816;2023-05-29T00:49:19;9.05;;;4.63;;
79566;SDS011;69030;48.126;7.816;2023-05-29T00:51:45;11.73;;;4.10;;
79566;SDS011;69030;48.126;7.816;2023-05-29T00:54:11;9.43;;;3.67;;
79566;SDS011;69030;48.126;7.816;2023-05-29T00:56:41;8.73;;;4.28;;
79566;SDS011;69030;48.126;7.816;2023-05-29T00:59:09;10.55;;;5.05;;
79566;SDS011;69030;48.126;7.816;2023-05-29T01:01:36;8.55;;;3.97;;
79566;SDS011;69030;48.126;7.816;2023-05-29T01:04:01;9.20;;;3.70;;
79566;SDS011;69030;48.126;7.816;2023-05-29T01:06:28;12.60;;;4.72;;
79566;SDS011;69030;48.126;7.816;2023-05-29T01:08:54;7.60;;;3.92;;
79566;SDS011;69030;48.126;7.816;2023-05-29T01:13:50;9.68;;;4.88;;
79566;SDS011;69030;48.126;7.816;2023-05-29T01:16:26;10.52;;;4.57;;
79566;SDS011;69030;48.126;7.816;2023-05-29T01:19:16;12.90;;;4.43;;
79566;SDS011;69030;48.126;7.816;2023-05-29T01:22:12;8.85;;;3.95;;
79566;SDS011;69030;48.126;7.816;2023-05-29T01:24:54;9.75;;;5.25;;
79566;SDS011;69030;48.126;7.816;2023-05-29T01:27:24;9.38;;;5.05;;
79566;SDS011;69030;48.126;7.816;2023-05-29T01:29:50;8.60;;;3.78;;
79566;SDS011;69030;48.126;7.816;2023-05-29T01:32:17;11.35;;;5.20;;
79566;SDS011;69030;48.126;7.816;2023-05-29T01:34:42;9.48;;;4.53;;
79566;SDS011;69030;48.126;7.816;2023-05-29T01:37:08;12.27;;;4.63;;
79566;SDS011;69030;48.126;7.816;2023-05-29T01:39:33;13.68;;;5.28;;
79566;SDS011;69030;48.126;7.816;2023-05-29T01:41:59;7.90;;;3.97;;
79566;SDS011;69030;48.126;7.816;2023-05-29T01:44:25;12.02;;;4.28;;
79566;SDS011;69030;48.126;7.816;2023-05-29T01:46:51;9.30;;;4.25;;
79566;SDS011;69030;48.126;7.816;2023-05-29T01:49:17;11.88;;;4.50;;
79566;SDS011;69030;48.126;7.816;2023-05-29T01:51:43;8.18;;;4.15;;
79566;SDS011;69030;48.126;7.816;2023-05-29T01:54:09;9.55;;;4.38;;
79566;SDS011;69030;48.126;7.816;2023-05-29T01:56:34;10.23;;;4.28;;
79566;SDS011;69030;48.126;7.816;2023-05-29T01:59:00;10.18;;;4.22;;
79566;SDS011;69030;48.126;7.816;2023-05-29T02:01:27;8.73;;;4.32;;
79566;SDS011;69030;48.126;7.816;2023-05-29T02:03:52;11.65;;;4.43;;
79566;SDS011;69030;48.126;7.816;2023-05-29T02:06:18;10.27;;;4.57;;
79566;SDS011;69030;48.126;7.816;2023-05-29T02:08:43;8.63;;;4.03;;
79566;SDS011;69030;48.126;7.816;2023-05-29T02:11:09;11.43;;;3.67;;
79566;SDS011;69030;48.126;7.816;2023-05-29T02:13:34;9.02;;;4.28;;
79566;SDS011;69030;48.126;7.816;2023-05-29T02:15:59;9.65;;;4.95;;
79566;SDS011;69030;48.126;7.816;2023-05-29T02:18:25;11.80;;;4.57;;
79566;SDS011;69030;48.126;7.816;2023-05-29T02:20:51;9.90;;;4.65;;
79566;SDS011;69030;48.126;7.816;2023-05-29T02:23:16;11.93;;;5.38;;
79566;SDS011;69030;48.126;7.816;2023-05-29T02:25:42;11.27;;;4.25;;
79566;SDS011;69030;48.126;7.816;2023-05-29T02:28:07;11.23;;;5.05;;
79566;SDS011;69030;48.126;7.816;2023-05-29T02:30:36;7.47;;;4.55;;
79566;SDS011;69030;48.126;7.816;2023-05-29T02:33:01;13.60;;;5.65;;
79566;SDS011;69030;48.126;7.816;2023-05-29T02:35:26;9.40;;;4.65;;
79566;SDS011;69030;48.126;7.816;2023-05-29T02:37:52;9.50;;;3.97;;
79566;SDS011;69030;48.126;7.816;2023-05-29T02:40:18;7.32;;;4.38;;
79566;SDS011;69030;48.126;7.816;2023-05-29T02:42:43;13.75;;;5.22;;
79566;SDS011;69030;48.126;7.816;2023-05-29T02:45:12;10.40;;;4.28;;
79566;SDS011;69030;48.126;7.816;2023-05-29T02:47:37;10.98;;;3.90;;
79566;SDS011;69030;48.126;7.816;2023-05-29T02:50:03;9.48;;;4.68;;
79566;SDS011;69030;48.126;7.816;2023-05-29T02:52:29;10.10;;;4.32;;
79566;SDS011;69030;48.126;7.816;2023-05-29T02:54:57;8.60;;;4.43;;
79566;SDS011;69030;48.126;7.816;2023-05-29T02:57:23;9.52;;;4.43;;
79566;SDS011;69030;48.126;7.816;2023-05-29T02:59:49;8.95;;;4.68;;
79566;SDS011;69030;48.126;7.816;2023-05-29T03:02:14;10.68;;;5.32;;
79566;SDS011;69030;48.126;7.816;2023-05-29T03:04:39;8.73;;;4.38;;
79566;SDS011;69030;48.126;7.816;2023-05-29T03:07:05;8.55;;;4.22;;
79566;SDS011;69030;48.126;7.816;2023-05-29T03:09:31;8.23;;;4.57;;
79566;SDS011;69030;48.126;7.816;2023-05-29T03:11:57;9.50;;;4.35;;
79566;SDS011;69030;48.126;7.816;2023-05-29T03:14:22;11.68;;;5.28;;
79566;SDS011;69030;48.126;7.816;2023-05-29T03:16:48;10.43;;;4.55;;
79566;SDS011;69030;48.126;7.816;2023-05-29T03:19:14;8.55;;;4.75;;
79566;SDS011;69030;48.126;7.816;2023-05-29T03:21:39;10.77;;;4.80;;
79566;SDS011;69030;48.126;7.816;2023-05-29T03:24:05;11.60;;;5.15;;
79566;SDS011;69030;48.126;7.816;2023-05-29T03:26:31;12.18;;;4.90;;
79566;SDS011;69030;48.126;7.816;2023-05-29T03:28:56;11.25;;;4.55;;
79566;SDS011;69030;48.126;7.816;2023-05-29T03:31:22;13.30;;;5.05;;
79566;SDS011;69030;48.126;7.816;2023-05-29T03:33:47;14.93;;;5.72;;
79566;SDS011;69030;48.126;7.816;2023-05-29T03:36:13;10.70;;;4.65;;
79566;SDS011;69030;48.126;7.816;2023-05-29T03:41:07;10.90;;;4.73;;
79566;SDS011;69030;48.126;7.816;2023-05-29T03:43:32;8.82;;;5.05;;
79566;SDS011;69030;48.126;7.816;2023-05-29T03:45:57;11.20;;;4.82;;
79566;SDS011;69030;48.126;7.816;2023-05-29T03:48:23;8.95;;;4.82;;
79566;SDS011;69030;48.126;7.816;2023-05-29T03:50:48;15.57;;;5.00;;
79566;SDS011;69030;48.126;7.816;2023-05-29T03:53:14;11.00;;;4.95;;
79566;SDS011;69030;48.126;7.816;2023-05-29T03:55:40;9.85;;;4.93;;
79566;SDS011;69030;48.126;7.816;2023-05-29T03:58:05;11.48;;;5.40;;
79566;SDS011;69030;48.126;7.816;2023-05-29T04:00:31;9.75;;;4.85;;
79566;SDS011;69030;48.126;7.816;2023-05-29T04:02:56;13.93;;;4.65;;
79566;SDS011;69030;48.126;7.816;2023-05-29T04:05:21;10.27;;;5.68;;
79566;SDS011;69030;48.126;7.816;2023-05-29T04:07:47;16.10;;;5.18;;
79566;SDS011;69030;48.126;7.816;2023-05-29T04:10:12;11.23;;;6.10;;
79566;SDS011;69030;48.126;7.816;2023-05-29T04:12:37;9.90;;;4.05;;
79566;SDS011;69030;48.126;7.816;2023-05-29T04:15:03;14.25;;;6.38;;
79566;SDS011;69030;48.126;7.816;2023-05-29T04:17:29;11.63;;;4.97;;
79566;SDS011;69030;48.126;7.816;2023-05-29T04:19:54;10.30;;;4.57;;
79566;SDS011;69030;48.126;7.816;2023-05-29T04:22:20;9.25;;;5.28;;
79566;SDS011;69030;48.126;7.816;2023-05-29T04:24:45;9.82;;;4.78;;
79566;SDS011;69030;48.126;7.816;2023-05-29T04:27:11;13.13;;;5.88;;
79566;SDS011;69030;48.126;7.816;2023-05-29T04:29:38;11.18;;;4.75;;
79566;SDS011;69030;48.126;7.816;2023-05-29T04:32:05;11.75;;;5.22;;
79566;SDS011;69030;48.126;7.816;2023-05-29T04:34:33;8.70;;;4.70;;
79566;SDS011;69030;48.126;7.816;2023-05-29T04:36:59;7.65;;;3.92;;
79566;SDS011;69030;48.126;7.816;2023-05-29T04:39:25;13.57;;;5.00;;
79566;SDS011;69030;48.126;7.816;2023-05-29T04:41:50;13.07;;;4.88;;
79566;SDS011;69030;48.126;7.816;2023-05-29T04:44:16;11.35;;;7.10;;
79566;SDS011;69030;48.126;7.816;2023-05-29T04:46:42;9.15;;;4.82;;
79566;SDS011;69030;48.126;7.816;2023-05-29T04:49:10;10.77;;;4.57;;
79566;SDS011;69030;48.126;7.816;2023-05-29T04:51:37;8.98;;;4.50;;
79566;SDS011;69030;48.126;7.816;2023-05-29T04:54:05;12.25;;;4.50;;
79566;SDS011;69030;48.126;7.816;2023-05-29T04:56:31;9.38;;;5.45;;
79566;SDS011;69030;48.126;7.816;2023-05-29T04:58:57;9.27;;;4.70;;
79566;SDS011;69030;48.126;7.816;2023-05-29T05:01:23;13.27;;;5.68;;
79566;SDS011;69030;48.126;7.816;2023-05-29T05:03:50;10.70;;;4.88;;
79566;SDS011;69030;48.126;7.816;2023-05-29T05:06:17;8.25;;;4.43;;
79566;SDS011;69030;48.126;7.816;2023-05-29T05:08:43;8.60;;;4.50;;
79566;SDS011;69030;48.126;7.816;2023-05-29T05:11:08;13.05;;;5.55;;
79566;SDS011;69030;48.126;7.816;2023-05-29T05:13:34;11.15;;;5.03;;
79566;SDS011;69030;48.126;7.816;2023-05-29T05:15:59;10.85;;;5.38;;
79566;SDS011;69030;48.126;7.816;2023-05-29T05:18:25;12.45;;;4.97;;
79566;SDS011;69030;48.126;7.816;2023-05-29T05:20:50;11.38;;;4.90;;
79566;SDS011;69030;48.126;7.816;2023-05-29T05:23:16;10.07;;;4.80;;
79566;SDS011;69030;48.126;7.816;2023-05-29T05:25:41;13.75;;;5.30;;
79566;SDS011;69030;48.126;7.816;2023-05-29T05:28:08;9.40;;;4.40;;
79566;SDS011;69030;48.126;7.816;2023-05-29T05:30:33;11.52;;;4.72;;
79566;SDS011;69030;48.126;7.816;2023-05-29T05:32:58;9.88;;;4.38;;
79566;SDS011;69030;48.126;7.816;2023-05-29T05:35:24;11.88;;;4.85;;
79566;SDS011;69030;48.126;7.816;2023-05-29T05:37:50;7.47;;;4.53;;
79566;SDS011;69030;48.126;7.816;2023-05-29T05:40:15;9.98;;;5.25;;
79566;SDS011;69030;48.126;7.816;2023-05-29T05:42:40;11.98;;;5.03;;
79566;SDS011;69030;48.126;7.816;2023-05-29T05:45:06;10.63;;;4.32;;
79566;SDS011;69030;48.126;7.816;2023-05-29T05:47:32;11.07;;;5.28;;
79566;SDS011;69030;48.126;7.816;2023-05-29T05:49:58;14.65;;;5.28;;
79566;SDS011;69030;48.126;7.816;2023-05-29T05:52:24;12.63;;;4.40;;
79566;SDS011;69030;48.126;7.816;2023-05-29T05:54:50;12.40;;;5.55;;
79566;SDS011;69030;48.126;7.816;2023-05-29T05:57:16;10.30;;;4.40;;
79566;SDS011;69030;48.126;7.816;2023-05-29T05:59:41;10.38;;;3.88;;
79566;SDS011;69030;48.126;7.816;2023-05-29T06:02:07;8.52;;;3.92;;
79566;SDS011;69030;48.126;7.816;2023-05-29T06:04:32;9.15;;;4.53;;
79566;SDS011;69030;48.126;7.816;2023-05-29T06:06:57;9.05;;;4.43;;
79566;SDS011;69030;48.126;7.816;2023-05-29T06:09:23;8.25;;;3.45;;
79566;SDS011;69030;48.126;7.816;2023-05-29T06:11:50;8.98;;;4.93;;
79566;SDS011;69030;48.126;7.816;2023-05-29T06:14:15;11.55;;;4.18;;
79566;SDS011;69030;48.126;7.816;2023-05-29T06:16:40;10.35;;;4.65;;
79566;SDS011;69030;48.126;7.816;2023-05-29T06:19:06;8.05;;;3.60;;
79566;SDS011;69030;48.126;7.816;2023-05-29T06:21:32;9.50;;;4.75;;
79566;SDS011;69030;48.126;7.816;2023-05-29T06:23:57;9.90;;;4.43;;
79566;SDS011;69030;48.126;7.816;2023-05-29T06:26:23;8.82;;;5.00;;
79566;SDS011;69030;48.126;7.816;2023-05-29T06:28:50;8.02;;;3.72;;
79566;SDS011;69030;48.126;7.816;2023-05-29T06:31:15;9.45;;;4.70;;
79566;SDS011;69030;48.126;7.816;2023-05-29T06:33:40;7.43;;;4.05;;
79566;SDS011;69030;48.126;7.816;2023-05-29T06:36:06;10.98;;;4.35;;
79566;SDS011;69030;48.126;7.816;2023-05-29T06:38:31;8.07;;;4.00;;
79566;SDS011;69030;48.126;7.816;2023-05-29T06:40:57;9.85;;;4.90;;
79566;SDS011;69030;48.126;7.816;2023-05-29T06:43:22;9.10;;;3.75;;
79566;SDS011;69030;48.126;7.816;2023-05-29T06:45:47;6.05;;;4.05;;
79566;SDS011;69030;48.126;7.816;2023-05-29T06:48:13;9.60;;;4.30;;
79566;SDS011;69030;48.126;7.816;2023-05-29T06:50:38;9.57;;;4.53;;
79566;SDS011;69030;48.126;7.816;2023-05-29T06:53:04;8.52;;;4.05;;
79566;SDS011;69030;48.126;7.816;2023-05-29T06:55:29;7.78;;;3.58;;
79566;SDS011;69030;48.126;7.816;2023-05-29T06:57:55;7.53;;;4.40;;
79566;SDS011;69030;48.126;7.816;2023-05-29T07:00:20;6.88;;;3.92;;
79566;SDS011;69030;48.126;7.816;2023-05-29T07:02:46;8.10;;;3.88;;
79566;SDS011;69030;48.126;7.816;2023-05-29T07:05:11;7.38;;;3.85;;
79566;SDS011;69030;48.126;7.816;2023-05-29T07:07:36;7.75;;;4.35;;
79566;SDS011;69030;48.126;7.816;2023-05-29T07:10:02;8.43;;;4.25;;
79566;SDS011;69030;48.126;7.816;2023-05-29T07:12:27;7.60;;;3.50;;
79566;SDS011;69030;48.126;7.816;2023-05-29T07:14:52;6.30;;;3.35;;
79566;SDS011;69030;48.126;7.816;2023-05-29T07:17:18;7.40;;;3.63;;
79566;SDS011;69030;48.126;7.816;2023-05-29T07:19:43;10.02;;;3.38;;
79566;SDS011;69030;48.126;7.816;2023-05-29T07:22:09;7.03;;;3.05;;
79566;SDS011;69030;48.126;7.816;2023-05-29T07:24:35;6.80;;;3.20;;
79566;SDS011;69030;48.126;7.816;2023-05-29T07:27:00;7.43;;;3.22;;
79566;SDS011;69030;48.126;7.816;2023-05-29T07:29:25;6.40;;;4.70;;
79566;SDS011;69030;48.126;7.816;2023-05-29T07:31:51;6.40;;;3.25;;
79566;SDS011;69030;48.126;7.816;2023-05-29T07:34:16;9.90;;;3.47;;
79566;SDS011;69030;48.126;7.816;2023-05-29T07:39:44;8.60;;;3.25;;
79566;SDS011;69030;48.126;7.816;2023-05-29T07:42:09;9.68;;;3.25;;
79566;SDS011;69030;48.126;7.816;2023-05-29T07:44:35;6.45;;;3.53;;
79566;SDS011;69030;48.126;7.816;2023-05-29T07:47:00;7.95;;;2.88;;
79566;SDS011;69030;48.126;7.816;2023-05-29T07:49:25;6.35;;;2.92;;
79566;SDS011;69030;48.126;7.816;2023-05-29T07:51:51;5.80;;;3.55;;
79566;SDS011;69030;48.126;7.816;2023-05-29T07:54:16;7.20;;;2.40;;
79566;SDS011;69030;48.126;7.816;2023-05-29T07:56:43;7.25;;;2.88;;
79566;SDS011;69030;48.126;7.816;2023-05-29T07:59:09;5.18;;;2.30;;
79566;SDS011;69030;48.126;7.816;2023-05-29T08:01:34;7.55;;;3.50;;
79566;SDS011;69030;48.126;7.816;2023-05-29T08:04:00;11.50;;;3.10;;
79566;SDS011;69030;48.126;7.816;2023-05-29T08:06:25;7.68;;;3.10;;
79566;SDS011;69030;48.126;7.816;2023-05-29T08:08:51;5.40;;;2.95;;
79566;SDS011;69030;48.126;7.816;2023-05-29T08:11:17;5.28;;;2.78;;
79566;SDS011;69030;48.126;7.816;2023-05-29T08:13:42;5.93;;;3.13;;
79566;SDS011;69030;48.126;7.816;2023-05-29T08:16:08;8.30;;;3.20;;
79566;SDS011;69030;48.126;7.816;2023-05-29T08:18:33;6.45;;;3.38;;
79566;SDS011;69030;48.126;7.816;2023-05-29T08:20:59;5.05;;;2.30;;
79566;SDS011;69030;48.126;7.816;2023-05-29T08:23:24;6.30;;;2.58;;
79566;SDS011;69030;48.126;7.816;2023-05-29T08:25:49;4.35;;;2.45;;
79566;SDS011;69030;48.126;7.816;2023-05-29T08:28:15;3.88;;;1.95;;
79566;SDS011;69030;48.126;7.816;2023-05-29T08:30:40;6.40;;;2.65;;
79566;SDS011;69030;48.126;7.816;2023-05-29T08:33:06;4.78;;;3.15;;
79566;SDS011;69030;48.126;7.816;2023-05-29T08:35:31;4.47;;;1.98;;
79566;SDS011;69030;48.126;7.816;2023-05-29T08:37:57;6.65;;;2.58;;
79566;SDS011;69030;48.126;7.816;2023-05-29T08:40:23;5.88;;;2.67;;
79566;SDS011;69030;48.126;7.816;2023-05-29T08:42:51;4.25;;;2.03;;
79566;SDS011;69030;48.126;7.816;2023-05-29T08:45:20;6.55;;;2.45;;
79566;SDS011;69030;48.126;7.816;2023-05-29T08:47:48;6.65;;;2.85;;
79566;SDS011;69030;48.126;7.816;2023-05-29T08:50:17;5.45;;;2.72;;
79566;SDS011;69030;48.126;7.816;2023-05-29T08:52:42;5.60;;;3.15;;
79566;SDS011;69030;48.126;7.816;2023-05-29T08:55:08;5.20;;;2.83;;
79566;SDS011;69030;48.126;7.816;2023-05-29T08:57:34;4.63;;;1.95;;
79566;SDS011;69030;48.126;7.816;2023-05-29T09:00:02;4.68;;;2.42;;
79566;SDS011;69030;48.126;7.816;2023-05-29T09:02:41;5.25;;;2.72;;
79566;SDS011;69030;48.126;7.816;2023-05-29T09:05:08;5.97;;;2.50;;
79566;SDS011;69030;48.126;7.816;2023-05-29T09:07:35;5.65;;;1.65;;
79566;SDS011;69030;48.126;7.816;2023-05-29T09:10:08;5.45;;;2.72;;
79566;SDS011;69030;48.126;7.816;2023-05-29T09:12:34;2.67;;;1.45;;
79566;SDS011;69030;48.126;7.816;2023-05-29T09:15:00;5.13;;;2.63;;
79566;SDS011;69030;48.126;7.816;2023-05-29T09:17:30;4.28;;;1.90;;
79566;SDS011;69030;48.126;7.816;2023-05-29T09:19:57;6.88;;;2.65;;
79566;SDS011;69030;48.126;7.816;2023-05-29T09:22:22;8.10;;;2.60;;
79566;SDS011;69030;48.126;7.816;2023-05-29T09:24:48;6.65;;;2.35;;
79566;SDS011;69030;48.126;7.816;2023-05-29T09:27:13;6.30;;;2.42;;
79566;SDS011;69030;48.126;7.816;2023-05-29T09:29:39;6.45;;;2.33;;
79566;SDS011;69030;48.126;7.816;2023-05-29T09:32:06;9.70;;;1.52;;
79566;SDS011;69030;48.126;7.816;2023-05-29T09:39:46;5.05;;;1.50;;
79566;SDS011;69030;48.126;7.816;2023-05-29T09:42:16;7.43;;;2.13;;
79566;SDS011;69030;48.126;7.816;2023-05-29T09:44:43;8.25;;;2.72;;
79566;SDS011;69030;48.126;7.816;2023-05-29T09:47:13;4.90;;;2.38;;
79566;SDS011;69030;48.126;7.816;2023-05-29T09:49:43;5.18;;;1.70;;
79566;SDS011;69030;48.126;7.816;2023-05-29T09:52:11;6.05;;;1.67;;
79566;SDS011;69030;48.126;7.816;2023-05-29T09:54:44;3.60;;;2.40;;
79566;SDS011;69030;48.126;7.816;2023-05-29T09:57:16;4.90;;;2.03;;
79566;SDS011;69030;48.126;7.816;2023-05-29T09:59:45;8.02;;;1.95;;
79566;SDS011;69030;48.126;7.816;2023-05-29T10:02:13;4.50;;;2.58;;
79566;SDS011;69030;48.126;7.816;2023-05-29T10:04:40;4.28;;;2.50;;
79566;SDS011;69030;48.126;7.816;2023-05-29T10:07:49;6.78;;;3.25;;
79566;SDS011;69030;48.126;7.816;2023-05-29T10:10:00;4.60;;;2.58;;
79566;SDS011;69030;48.126;7.816;2023-05-29T10:12:27;5.68;;;1.77;;
79566;SDS011;69030;48.126;7.816;2023-05-29T10:14:54;3.90;;;1.73;;
79566;SDS011;69030;48.126;7.816;2023-05-29T10:17:26;5.72;;;1.88;;
79566;SDS011;69030;48.126;7.816;2023-05-29T10:19:57;5.28;;;1.88;;
79566;SDS011;69030;48.126;7.816;2023-05-29T10:22:23;6.28;;;2.50;;
79566;SDS011;69030;48.126;7.816;2023-05-29T10:24:50;5.70;;;2.38;;
79566;SDS011;69030;48.126;7.816;2023-05-29T10:27:16;4.63;;;1.98;;
79566;SDS011;69030;48.126;7.816;2023-05-29T10:29:43;8.43;;;2.53;;
79566;SDS011;69030;48.126;7.816;2023-05-29T10:35:14;5.13;;;2.47;;
79566;SDS011;69030;48.126;7.816;2023-05-29T10:38:09;4.72;;;2.15;;
79566;SDS011;69030;48.126;7.816;2023-05-29T10:43:00;8.13;;;2.10;;
79566;SDS011;69030;48.126;7.816;2023-05-29T10:50:37;4.45;;;2.30;;
79566;SDS011;69030;48.126;7.816;2023-05-29T10:53:06;4.55;;;2.83;;
79566;SDS011;69030;48.126;7.816;2023-05-29T10:55:39;6.00;;;2.25;;
79566;SDS011;69030;48.126;7.816;2023-05-29T10:58:12;4.65;;;2.13;;
79566;SDS011;69030;48.126;7.816;2023-05-29T11:00:39;2.80;;;1.67;;
79566;SDS011;69030;48.126;7.816;2023-05-29T11:03:09;4.15;;;1.60;;
79566;SDS011;69030;48.126;7.816;2023-05-29T11:05:35;4.07;;;1.90;;
79566;SDS011;69030;48.126;7.816;2023-05-29T11:09:25;6.60;;;2.35;;
79566;SDS011;69030;48.126;7.816;2023-05-29T11:11:32;8.82;;;1.90;;
79566;SDS011;69030;48.126;7.816;2023-05-29T11:14:01;5.40;;;1.98;;
79566;SDS011;69030;48.126;7.816;2023-05-29T11:18:58;7.38;;;2.35;;
79566;SDS011;69030;48.126;7.816;2023-05-29T11:21:34;5.63;;;2.63;;
79566;SDS011;69030;48.126;7.816;2023-05-29T11:24:08;9.88;;;3.08;;
79566;SDS011;69030;48.126;7.816;2023-05-29T11:26:44;3.55;;;1.77;;
79566;SDS011;69030;48.126;7.816;2023-05-29T11:29:10;5.72;;;2.28;;
79566;SDS011;69030;48.126;7.816;2023-05-29T11:31:36;8.70;;;2.83;;
79566;SDS011;69030;48.126;7.816;2023-05-29T11:34:02;4.82;;;1.55;;
79566;SDS011;69030;48.126;7.816;2023-05-29T11:36:32;8.40;;;1.77;;
79566;SDS011;69030;48.126;7.816;2023-05-29T11:38:58;4.97;;;1.75;;
79566;SDS011;69030;48.126;7.816;2023-05-29T11:41:25;4.57;;;2.38;;
79566;SDS011;69030;48.126;7.816;2023-05-29T11:43:57;5.35;;;2.40;;
79566;SDS011;69030;48.126;7.816;2023-05-29T11:46:22;6.18;;;2.00;;
79566;SDS011;69030;48.126;7.816;2023-05-29T11:48:48;3.53;;;1.92;;
79566;SDS011;69030;48.126;7.816;2023-05-29T11:51:14;7.03;;;2.40;;
79566;SDS011;69030;48.126;7.816;2023-05-29T11:53:40;5.88;;;3.10;;
79566;SDS011;69030;48.126;7.816;2023-05-29T11:56:09;4.15;;;2.20;;
79566;SDS011;69030;48.126;7.816;2023-05-29T11:58:42;6.88;;;2.00;;
79566;SDS011;69030;48.126;7.816;2023-05-29T12:01:07;5.68;;;2.17;;
79566;SDS011;69030;48.126;7.816;2023-05-29T12:03:39;6.65;;;2.40;;
79566;SDS011;69030;48.126;7.816;2023-05-29T12:06:05;5.65;;;2.65;;
79566;SDS011;69030;48.126;7.816;2023-05-29T12:08:31;5.90;;;2.60;;
79566;SDS011;69030;48.126;7.816;2023-05-29T12:10:57;6.43;;;2.08;;
79566;SDS011;69030;48.126;7.816;2023-05-29T12:13:22;4.47;;;1.75;;
79566;SDS011;69030;48.126;7.816;2023-05-29T12:15:49;6.03;;;2.40;;
79566;SDS011;69030;48.126;7.816;2023-05-29T12:18:17;4.40;;;2.13;;
79566;SDS011;69030;48.126;7.816;2023-05-29T12:20:43;5.13;;;2.45;;
79566;SDS011;69030;48.126;7.816;2023-05-29T12:23:08;4.20;;;2.47;;
79566;SDS011;69030;48.126;7.816;2023-05-29T12:25:34;4.00;;;1.98;;
79566;SDS011;69030;48.126;7.816;2023-05-29T12:28:02;5.20;;;2.08;;
79566;SDS011;69030;48.126;7.816;2023-05-29T12:30:27;6.38;;;2.50;;
79566;SDS011;69030;48.126;7.816;2023-05-29T12:32:52;4.50;;;1.88;;
79566;SDS011;69030;48.126;7.816;2023-05-29T12:35:19;6.35;;;2.42;;
79566;SDS011;69030;48.126;7.816;2023-05-29T12:37:55;5.70;;;1.92;;
79566;SDS011;69030;48.126;7.816;2023-05-29T12:40:23;4.15;;;2.03;;
79566;SDS011;69030;48.126;7.816;2023-05-29T12:45:21;3.92;;;2.20;;
79566;SDS011;69030;48.126;7.816;2023-05-29T12:47:53;4.38;;;2.35;;
79566;SDS011;69030;48.126;7.816;2023-05-29T12:50:20;6.40;;;2.38;;
79566;SDS011;69030;48.126;7.816;2023-05-29T12:52:53;4.55;;;2.35;;
79566;SDS011;69030;48.126;7.816;2023-05-29T12:55:22;4.20;;;2.35;;
79566;SDS011;69030;48.126;7.816;2023-05-29T12:57:47;6.53;;;2.47;;
79566;SDS011;69030;48.126;7.816;2023-05-29T13:00:14;6.13;;;2.05;;
79566;SDS011;69030;48.126;7.816;2023-05-29T13:02:39;4.50;;;2.28;;
79566;SDS011;69030;48.126;7.816;2023-05-29T13:05:05;6.18;;;2.58;;
79566;SDS011;69030;48.126;7.816;2023-05-29T13:07:32;5.20;;;2.20;;
79566;SDS011;69030;48.126;7.816;2023-05-29T13:09:58;4.00;;;3.00;;
79566;SDS011;69030;48.126;7.816;2023-05-29T13:12:24;3.60;;;2.08;;
79566;SDS011;69030;48.126;7.816;2023-05-29T13:14:49;4.80;;;1.88;;
79566;SDS011;69030;48.126;7.816;2023-05-29T13:17:15;3.83;;;2.13;;
79566;SDS011;69030;48.126;7.816;2023-05-29T13:19:40;3.28;;;1.70;;
79566;SDS011;69030;48.126;7.816;2023-05-29T13:22:06;4.80;;;2.20;;
79566;SDS011;69030;48.126;7.816;2023-05-29T13:24:31;5.20;;;2.28;;
79566;SDS011;69030;48.126;7.816;2023-05-29T13:26:57;4.78;;;2.22;;
79566;SDS011;69030;48.126;7.816;2023-05-29T13:29:25;2.72;;;1.60;;
79566;SDS011;69030;48.126;7.816;2023-05-29T13:31:51;5.32;;;2.55;;
79566;SDS011;69030;48.126;7.816;2023-05-29T13:34:16;3.85;;;2.40;;
79566;SDS011;69030;48.126;7.816;2023-05-29T13:36:42;3.75;;;1.88;;
79566;SDS011;69030;48.126;7.816;2023-05-29T13:39:09;8.30;;;2.53;;
79566;SDS011;69030;48.126;7.816;2023-05-29T13:41:34;5.82;;;2.40;;
79566;SDS011;69030;48.126;7.816;2023-05-29T13:44:00;5.25;;;3.03;;
79566;SDS011;69030;48.126;7.816;2023-05-29T13:46:26;5.95;;;2.47;;
79566;SDS011;69030;48.126;7.816;2023-05-29T13:48:52;2.97;;;2.13;;
79566;SDS011;69030;48.126;7.816;2023-05-29T13:51:17;3.85;;;1.92;;
79566;SDS011;69030;48.126;7.816;2023-05-29T13:53:42;4.95;;;2.42;;
79566;SDS011;69030;48.126;7.816;2023-05-29T13:56:08;4.60;;;2.33;;
79566;SDS011;69030;48.126;7.816;2023-05-29T13:58:33;4.65;;;2.22;;
79566;SDS011;69030;48.126;7.816;2023-05-29T14:00:58;4.13;;;1.90;;
79566;SDS011;69030;48.126;7.816;2023-05-29T14:03:24;6.45;;;2.40;;
79566;SDS011;69030;48.126;7.816;2023-05-29T14:05:53;4.53;;;2.28;;
79566;SDS011;69030;48.126;7.816;2023-05-29T14:08:19;3.83;;;1.70;;
79566;SDS011;69030;48.126;7.816;2023-05-29T14:10:44;7.20;;;2.42;;
79566;SDS011;69030;48.126;7.816;2023-05-29T14:13:09;4.78;;;2.20;;
79566;SDS011;69030;48.126;7.816;2023-05-29T14:15:35;5.35;;;2.28;;
79566;SDS011;69030;48.126;7.816;2023-05-29T14:18:00;3.95;;;2.13;;
79566;SDS011;69030;48.126;7.816;2023-05-29T14:20:27;7.00;;;2.25;;
79566;SDS011;69030;48.126;7.816;2023-05-29T14:22:53;5.13;;;2.42;;
79566;SDS011;69030;48.126;7.816;2023-05-29T14:25:19;4.65;;;2.30;;
79566;SDS011;69030;48.126;7.816;2023-05-29T14:27:44;6.63;;;2.33;;
79566;SDS011;69030;48.126;7.816;2023-05-29T14:30:10;3.97;;;2.17;;
79566;SDS011;69030;48.126;7.816;2023-05-29T14:32:36;4.78;;;3.08;;
79566;SDS011;69030;48.126;7.816;2023-05-29T14:35:01;5.32;;;2.42;;
79566;SDS011;69030;48.126;7.816;2023-05-29T14:37:26;4.88;;;2.10;;
79566;SDS011;69030;48.126;7.816;2023-05-29T14:39:52;5.00;;;2.22;;
79566;SDS011;69030;48.126;7.816;2023-05-29T14:42:17;4.88;;;2.80;;
79566;SDS011;69030;48.126;7.816;2023-05-29T14:44:43;5.25;;;2.38;;
79566;SDS011;69030;48.126;7.816;2023-05-29T14:47:08;5.15;;;2.20;;
79566;SDS011;69030;48.126;7.816;2023-05-29T14:49:33;5.80;;;2.47;;
79566;SDS011;69030;48.126;7.816;2023-05-29T14:51:59;6.18;;;2.50;;
79566;SDS011;69030;48.126;7.816;2023-05-29T14:54:24;5.68;;;2.20;;
79566;SDS011;69030;48.126;7.816;2023-05-29T14:56:50;3.95;;;1.92;;
79566;SDS011;69030;48.126;7.816;2023-05-29T14:59:15;6.43;;;2.38;;
79566;SDS011;69030;48.126;7.816;2023-05-29T15:01:41;4.47;;;2.40;;
79566;SDS011;69030;48.126;7.816;2023-05-29T15:04:06;4.22;;;2.08;;
79566;SDS011;69030;48.126;7.816;2023-05-29T15:06:31;4.43;;;2.05;;
79566;SDS011;69030;48.126;7.816;2023-05-29T15:08:58;3.97;;;2.67;;
79566;SDS011;69030;48.126;7.816;2023-05-29T15:11:26;6.65;;;2.78;;